createdAt,value
2023-02-12T00:00:55.874Z,9.11
2023-02-12T00:05:56.160Z,9.08
2023-02-12T00:10:55.718Z,9.13
2023-02-12T00:15:56.142Z,9.14
2023-02-12T00:20:55.563Z,9.24
2023-02-12T00:25:55.847Z,9.20
2023-02-12T00:30:55.744Z,9.23
2023-02-12T00:35:55.817Z,9.26
2023-02-12T00:40:55.300Z,9.24
2023-02-12T00:45:55.672Z,9.20
2023-02-12T00:50:55.216Z,9.23
2023-02-12T00:55:55.523Z,9.08
2023-02-12T01:00:55.199Z,9.17
2023-02-12T01:05:55.317Z,9.20
2023-02-12T01:10:56.053Z,9.23
2023-02-12T01:15:56.408Z,9.20
2023-02-12T01:20:54.913Z,9.10
2023-02-12T01:25:56.053Z,9.13
2023-02-12T01:30:54.810Z,9.11
2023-02-12T01:35:55.082Z,9.13
2023-02-12T01:40:54.675Z,9.15
2023-02-12T01:45:55.014Z,9.17
2023-02-12T01:50:54.595Z,9.15
2023-02-12T01:55:54.983Z,9.17
2023-02-12T02:00:54.608Z,9.13
2023-02-12T02:05:54.745Z,9.10
2023-02-12T02:10:55.450Z,9.05
2023-02-12T02:15:54.806Z,9.05
2023-02-12T02:20:54.367Z,9.04
2023-02-12T02:25:54.470Z,9.05
2023-02-12T02:30:54.314Z,9.04
2023-02-12T02:35:54.357Z,9.01
2023-02-12T02:40:54.101Z,8.96
2023-02-12T02:45:54.499Z,8.89
2023-02-12T02:50:53.983Z,8.83
2023-02-12T02:55:54.327Z,8.77
2023-02-12T03:00:53.787Z,8.84
2023-02-12T03:05:54.058Z,8.87
2023-02-12T03:10:53.620Z,8.80
2023-02-12T03:15:53.835Z,8.77
2023-02-12T03:20:53.626Z,8.74
2023-02-12T03:25:53.790Z,8.76
2023-02-12T03:30:53.449Z,8.65
2023-02-12T03:35:53.760Z,8.71
2023-02-12T03:40:53.490Z,8.71
2023-02-12T03:45:53.734Z,8.53
2023-02-12T03:50:53.221Z,8.65
2023-02-12T03:55:53.627Z,8.65
2023-02-12T04:00:53.253Z,8.65
2023-02-12T04:05:53.355Z,8.71
2023-02-12T04:10:52.967Z,8.73
2023-02-12T04:15:55.467Z,8.68
2023-02-12T04:20:53.156Z,8.76
2023-02-12T04:25:53.215Z,8.65
2023-02-12T04:30:53.332Z,8.73
2023-02-12T04:35:53.022Z,8.77
2023-02-12T04:40:53.148Z,8.74
2023-02-12T04:45:53.359Z,8.71
2023-02-12T04:50:52.634Z,8.74
2023-02-12T04:55:52.553Z,8.65
2023-02-12T05:00:52.792Z,8.71
2023-02-12T05:05:54.941Z,8.68
2023-02-12T05:10:54.493Z,8.70
2023-02-12T05:15:52.400Z,8.80
2023-02-12T05:20:52.366Z,8.76
2023-02-12T05:25:52.511Z,8.79
2023-02-12T05:30:52.164Z,8.80
2023-02-12T05:35:52.222Z,8.76
2023-02-12T05:40:52.054Z,8.81
2023-02-12T05:47:50.295Z,8.89
2023-02-12T05:52:51.170Z,8.77
2023-02-12T05:57:50.260Z,8.68
2023-02-12T06:02:50.072Z,8.66
2023-02-12T06:07:49.945Z,8.66
2023-02-12T06:12:50.013Z,8.61
2023-02-12T06:17:51.083Z,8.70
2023-02-12T06:22:49.822Z,8.63
2023-02-12T06:27:49.864Z,8.76
2023-02-12T06:32:50.771Z,8.73
2023-02-12T06:37:54.161Z,8.73
2023-02-12T06:42:50.491Z,8.71
2023-02-12T06:47:49.631Z,8.79
2023-02-12T06:52:50.567Z,8.81
2023-02-12T06:57:49.561Z,8.80
2023-02-12T07:02:49.449Z,8.83
2023-02-12T07:07:50.524Z,8.79
2023-02-12T07:12:50.145Z,8.63
2023-02-12T07:17:49.148Z,8.74
2023-02-12T07:22:51.271Z,8.80
2023-02-12T07:27:48.997Z,8.80
2023-02-12T07:32:49.026Z,8.80
2023-02-12T07:38:12.079Z,8.80
2023-02-12T07:42:48.863Z,8.83
2023-02-12T07:47:52.806Z,8.86
2023-02-12T07:52:49.523Z,8.92
2023-02-12T07:59:04.521Z,9.01
2023-02-12T08:04:06.661Z,9.04
2023-02-12T08:09:04.936Z,9.14
2023-02-12T08:14:04.433Z,9.28
2023-02-12T08:19:16.150Z,9.33
2023-02-12T08:24:05.431Z,9.42
2023-02-12T08:29:05.034Z,9.51
2023-02-12T08:34:04.208Z,9.71
2023-02-12T08:39:04.797Z,9.76
2023-02-12T08:44:04.479Z,9.87
2023-02-12T08:49:08.071Z,9.89
2023-02-12T08:54:05.302Z,10.01
2023-02-12T08:59:26.753Z,9.99
2023-02-12T09:04:03.881Z,10.12
2023-02-12T09:09:04.903Z,10.26
2023-02-12T09:14:03.765Z,10.30
2023-02-12T09:19:04.915Z,10.47
2023-02-12T09:24:03.732Z,10.61
2023-02-12T09:50:16.349Z,11.65
2023-02-12T09:55:16.476Z,11.79
2023-02-12T10:00:16.411Z,11.85
2023-02-12T10:07:23.723Z,11.78
2023-02-12T10:12:23.606Z,11.88
2023-02-12T11:21:35.521Z,12.50
2023-02-12T11:26:35.377Z,12.71
2023-02-12T11:31:35.629Z,12.53
2023-02-12T11:36:35.425Z,12.10
2023-02-12T11:41:35.404Z,12.64
2023-02-12T12:22:29.162Z,12.50
2023-02-12T12:27:28.995Z,12.64
2023-02-12T12:32:28.987Z,12.34
2023-02-12T12:37:28.924Z,12.57
2023-02-12T12:42:28.814Z,12.65
2023-02-12T12:47:28.791Z,12.34
2023-02-12T12:52:28.711Z,12.56
2023-02-12T12:57:28.616Z,12.82
2023-02-12T13:02:28.773Z,12.56
2023-02-12T13:07:28.619Z,12.56
2023-02-12T13:12:28.517Z,12.65
2023-02-12T13:17:28.464Z,12.57
2023-02-12T13:22:28.378Z,12.49
2023-02-12T13:27:28.326Z,12.12
2023-02-12T13:32:28.350Z,12.20
2023-02-12T13:37:28.177Z,12.23
2023-02-12T13:42:28.355Z,12.42
2023-02-12T13:47:29.857Z,12.35
2023-02-12T13:52:28.900Z,12.52
2023-02-12T13:57:28.600Z,12.07
2023-02-12T14:02:30.344Z,12.23
2023-02-12T14:07:27.951Z,12.29
2023-02-12T14:12:27.947Z,12.20
2023-02-12T14:17:27.842Z,12.35
2023-02-12T14:22:38.999Z,12.23
2023-02-12T14:27:28.782Z,12.46
2023-02-12T14:32:27.632Z,12.37
2023-02-12T14:37:28.847Z,12.23
2023-02-12T14:42:27.718Z,12.02
2023-02-12T14:47:27.524Z,12.23
2023-02-12T14:52:27.813Z,12.12
2023-02-12T14:57:27.644Z,12.19
2023-02-12T15:03:01.029Z,12.04
2023-02-12T15:07:29.287Z,12.20
2023-02-12T15:12:31.053Z,12.09
2023-02-12T15:17:27.210Z,11.72
2023-02-12T15:22:27.398Z,11.96
2023-02-12T15:27:35.236Z,11.85
2023-02-12T15:32:33.120Z,11.72
2023-02-12T15:37:27.067Z,11.67
2023-02-12T15:42:28.055Z,11.91
2023-02-12T15:47:29.123Z,11.78
2023-02-12T15:52:26.962Z,11.88
2023-02-12T15:57:28.022Z,11.88
2023-02-12T16:02:26.747Z,11.88
2023-02-12T16:07:26.863Z,11.72
2023-02-12T16:12:27.064Z,11.62
2023-02-12T16:17:27.228Z,11.60
2023-02-12T16:22:26.881Z,11.44
2023-02-12T16:27:26.436Z,11.49
2023-02-12T16:32:26.901Z,11.43
2023-02-12T16:37:29.752Z,11.54
2023-02-12T16:42:26.557Z,11.51
2023-02-12T16:47:28.692Z,11.51
2023-02-12T16:55:03.636Z,11.62
2023-02-12T17:00:03.656Z,11.51
2023-02-12T17:05:03.671Z,11.43
2023-02-12T17:10:03.533Z,11.21
2023-02-12T17:15:03.579Z,11.28
2023-02-12T17:20:03.388Z,11.29
2023-02-12T17:25:03.342Z,11.14
2023-02-12T17:30:03.338Z,11.15
2023-02-12T17:35:03.269Z,11.00
2023-02-12T17:40:05.158Z,11.03
2023-02-12T17:45:03.206Z,10.86
2023-02-12T17:50:03.089Z,11.02
2023-02-12T17:55:02.994Z,10.99
2023-02-12T18:00:02.910Z,10.88
2023-02-12T18:05:02.906Z,10.79
2023-02-12T18:10:02.881Z,10.82
2023-02-12T18:15:02.807Z,10.79
2023-02-12T18:20:02.782Z,10.82
2023-02-12T18:25:02.728Z,10.68
2023-02-12T18:30:02.662Z,10.64
2023-02-12T18:35:02.511Z,10.71
2023-02-12T18:40:02.643Z,10.78
2023-02-12T18:45:03.460Z,10.74
2023-02-12T18:50:02.477Z,10.68
2023-02-12T18:55:02.334Z,10.67
2023-02-12T19:00:02.494Z,10.68
2023-02-12T19:05:02.328Z,10.64
2023-02-12T19:10:02.616Z,10.66
2023-02-12T19:15:02.152Z,10.60
2023-02-12T19:20:02.023Z,10.63
2023-02-12T19:25:01.992Z,10.61
2023-02-12T19:30:01.948Z,10.67
2023-02-12T19:35:01.858Z,10.56
2023-02-12T19:40:01.847Z,10.53
2023-02-12T19:45:01.814Z,10.41
2023-02-12T19:50:01.704Z,10.48
2023-02-12T19:55:01.657Z,10.51
2023-02-12T20:00:01.614Z,10.36
2023-02-12T20:05:01.588Z,10.33
2023-02-12T20:10:01.519Z,10.60
2023-02-12T20:15:02.583Z,10.59
2023-02-12T20:20:01.432Z,10.55
2023-02-12T20:25:01.284Z,10.33
2023-02-12T20:30:01.260Z,10.42
2023-02-12T20:35:01.406Z,10.47
2023-02-12T20:40:01.124Z,10.60
2023-02-12T20:45:01.099Z,10.36
2023-02-12T20:50:01.111Z,10.56
2023-02-12T20:55:00.999Z,10.63
2023-02-12T21:00:00.942Z,10.64
2023-02-12T21:05:00.943Z,10.25
2023-02-12T21:10:00.874Z,10.38
2023-02-12T21:15:00.786Z,10.23
2023-02-12T21:20:00.759Z,10.26
2023-02-12T21:25:00.718Z,10.47
2023-02-12T21:30:00.648Z,10.64
2023-02-12T21:35:00.591Z,10.61
2023-02-12T21:40:03.912Z,10.61
2023-02-12T21:45:00.447Z,10.47
2023-02-12T21:50:00.374Z,10.55
2023-02-12T21:55:00.310Z,10.52
2023-02-12T22:00:03.642Z,10.51
2023-02-12T22:05:00.222Z,10.41
2023-02-12T22:10:00.136Z,10.61
2023-02-12T22:15:00.112Z,10.60
2023-02-12T22:20:00.037Z,10.56
2023-02-12T22:24:59.953Z,10.64
2023-02-12T22:29:59.899Z,10.66
2023-02-12T22:35:03.275Z,10.56
2023-02-12T22:39:59.778Z,10.55
2023-02-12T22:44:59.726Z,10.42
2023-02-12T22:49:59.664Z,10.44
2023-02-12T22:55:01.650Z,10.56
2023-02-12T22:59:59.617Z,10.52
2023-02-12T23:04:59.589Z,10.56
2023-02-12T23:09:59.484Z,10.55
2023-02-12T23:14:59.447Z,10.42
2023-02-12T23:19:59.382Z,10.40
2023-02-12T23:24:59.356Z,10.47
2023-02-12T23:29:59.267Z,10.53
2023-02-12T23:35:00.242Z,10.45
2023-02-12T23:39:59.148Z,10.38
2023-02-12T23:44:59.158Z,10.32
2023-02-12T23:49:59.075Z,10.32
2023-02-12T23:54:59.016Z,10.34
2023-02-12T23:59:58.936Z,10.34
